sensor_id;sensor_type;location;lat;lon;timestamp;P1;durP1;ratioP1;P2;durP2;ratioP2
30080;SDS011;16902;50.816;12.828;2023-03-04T00:00:43;38.10;;;18.47;;
30080;SDS011;16902;50.816;12.828;2023-03-04T00:05:46;32.97;;;17.67;;
30080;SDS011;16902;50.816;12.828;2023-03-04T00:10:48;33.20;;;18.03;;
30080;SDS011;16902;50.816;12.828;2023-03-04T00:15:50;36.67;;;19.30;;
30080;SDS011;16902;50.816;12.828;2023-03-04T00:20:51;39.03;;;19.90;;
30080;SDS011;16902;50.816;12.828;2023-03-04T00:25:53;35.07;;;18.30;;
30080;SDS011;16902;50.816;12.828;2023-03-04T00:30:55;33.83;;;17.63;;
30080;SDS011;16902;50.816;12.828;2023-03-04T00:35:57;37.77;;;18.73;;
30080;SDS011;16902;50.816;12.828;2023-03-04T00:40:58;32.97;;;17.47;;
30080;SDS011;16902;50.816;12.828;2023-03-04T00:46:00;37.53;;;18.10;;
30080;SDS011;16902;50.816;12.828;2023-03-04T00:51:03;35.07;;;18.63;;
30080;SDS011;16902;50.816;12.828;2023-03-04T00:56:05;34.90;;;18.10;;
30080;SDS011;16902;50.816;12.828;2023-03-04T01:01:07;33.53;;;16.80;;
30080;SDS011;16902;50.816;12.828;2023-03-04T01:06:09;33.07;;;17.27;;
30080;SDS011;16902;50.816;12.828;2023-03-04T01:11:12;34.07;;;17.37;;
30080;SDS011;16902;50.816;12.828;2023-03-04T01:16:13;32.30;;;17.77;;
30080;SDS011;16902;50.816;12.828;2023-03-04T01:21:15;34.23;;;17.93;;
30080;SDS011;16902;50.816;12.828;2023-03-04T01:26:17;35.23;;;18.27;;
30080;SDS011;16902;50.816;12.828;2023-03-04T01:31:20;34.73;;;17.80;;
30080;SDS011;16902;50.816;12.828;2023-03-04T01:36:22;31.30;;;17.70;;
30080;SDS011;16902;50.816;12.828;2023-03-04T01:41:24;35.17;;;17.93;;
30080;SDS011;16902;50.816;12.828;2023-03-04T01:46:27;31.40;;;17.40;;
30080;SDS011;16902;50.816;12.828;2023-03-04T01:51:31;35.17;;;17.40;;
30080;SDS011;16902;50.816;12.828;2023-03-04T01:56:34;31.53;;;17.40;;
30080;SDS011;16902;50.816;12.828;2023-03-04T02:01:37;35.17;;;17.57;;
30080;SDS011;16902;50.816;12.828;2023-03-04T02:06:40;35.83;;;18.63;;
30080;SDS011;16902;50.816;12.828;2023-03-04T02:11:43;33.17;;;18.63;;
30080;SDS011;16902;50.816;12.828;2023-03-04T02:16:46;35.63;;;18.43;;
30080;SDS011;16902;50.816;12.828;2023-03-04T02:21:49;37.97;;;18.07;;
30080;SDS011;16902;50.816;12.828;2023-03-04T02:26:51;33.97;;;17.17;;
30080;SDS011;16902;50.816;12.828;2023-03-04T02:31:53;38.73;;;19.53;;
30080;SDS011;16902;50.816;12.828;2023-03-04T02:36:55;38.10;;;18.07;;
30080;SDS011;16902;50.816;12.828;2023-03-04T02:42:00;38.23;;;18.47;;
30080;SDS011;16902;50.816;12.828;2023-03-04T02:47:07;35.27;;;18.73;;
30080;SDS011;16902;50.816;12.828;2023-03-04T02:52:17;36.47;;;17.93;;
30080;SDS011;16902;50.816;12.828;2023-03-04T02:57:21;36.83;;;17.13;;
30080;SDS011;16902;50.816;12.828;2023-03-04T03:02:27;39.13;;;19.03;;
30080;SDS011;16902;50.816;12.828;2023-03-04T03:07:30;35.53;;;18.57;;
30080;SDS011;16902;50.816;12.828;2023-03-04T03:12:32;31.90;;;16.97;;
30080;SDS011;16902;50.816;12.828;2023-03-04T03:17:34;35.37;;;17.50;;
30080;SDS011;16902;50.816;12.828;2023-03-04T03:22:36;32.90;;;16.50;;
30080;SDS011;16902;50.816;12.828;2023-03-04T03:27:38;32.67;;;17.17;;
30080;SDS011;16902;50.816;12.828;2023-03-04T03:32:40;31.17;;;16.90;;
30080;SDS011;16902;50.816;12.828;2023-03-04T03:37:42;32.63;;;17.07;;
30080;SDS011;16902;50.816;12.828;2023-03-04T03:42:43;34.63;;;16.73;;
30080;SDS011;16902;50.816;12.828;2023-03-04T03:47:45;33.20;;;17.73;;
30080;SDS011;16902;50.816;12.828;2023-03-04T03:52:47;33.23;;;18.63;;
30080;SDS011;16902;50.816;12.828;2023-03-04T03:57:48;32.40;;;17.80;;
30080;SDS011;16902;50.816;12.828;2023-03-04T04:02:50;35.50;;;17.43;;
30080;SDS011;16902;50.816;12.828;2023-03-04T04:07:54;32.67;;;17.97;;
30080;SDS011;16902;50.816;12.828;2023-03-04T04:12:56;38.37;;;18.37;;
30080;SDS011;16902;50.816;12.828;2023-03-04T04:17:58;36.67;;;18.07;;
30080;SDS011;16902;50.816;12.828;2023-03-04T04:22:59;34.93;;;18.60;;
30080;SDS011;16902;50.816;12.828;2023-03-04T04:28:01;36.33;;;17.73;;
30080;SDS011;16902;50.816;12.828;2023-03-04T04:33:03;34.20;;;17.47;;
30080;SDS011;16902;50.816;12.828;2023-03-04T04:38:05;36.07;;;17.33;;
30080;SDS011;16902;50.816;12.828;2023-03-04T04:43:07;38.67;;;18.80;;
30080;SDS011;16902;50.816;12.828;2023-03-04T04:48:09;38.90;;;17.43;;
30080;SDS011;16902;50.816;12.828;2023-03-04T04:53:11;37.07;;;19.40;;
30080;SDS011;16902;50.816;12.828;2023-03-04T04:58:14;40.03;;;20.23;;
30080;SDS011;16902;50.816;12.828;2023-03-04T05:03:16;38.03;;;19.90;;
30080;SDS011;16902;50.816;12.828;2023-03-04T05:08:19;36.63;;;20.40;;
30080;SDS011;16902;50.816;12.828;2023-03-04T05:13:20;40.17;;;19.13;;
30080;SDS011;16902;50.816;12.828;2023-03-04T05:18:23;39.47;;;17.90;;
30080;SDS011;16902;50.816;12.828;2023-03-04T05:23:27;39.73;;;20.20;;
30080;SDS011;16902;50.816;12.828;2023-03-04T05:28:30;37.80;;;19.90;;
30080;SDS011;16902;50.816;12.828;2023-03-04T05:33:32;35.93;;;18.80;;
30080;SDS011;16902;50.816;12.828;2023-03-04T05:38:34;40.47;;;20.60;;
30080;SDS011;16902;50.816;12.828;2023-03-04T05:43:35;36.73;;;19.70;;
30080;SDS011;16902;50.816;12.828;2023-03-04T05:48:38;39.93;;;20.23;;
30080;SDS011;16902;50.816;12.828;2023-03-04T05:53:40;34.63;;;19.07;;
30080;SDS011;16902;50.816;12.828;2023-03-04T05:58:42;40.70;;;19.17;;
30080;SDS011;16902;50.816;12.828;2023-03-04T06:03:45;36.70;;;20.60;;
30080;SDS011;16902;50.816;12.828;2023-03-04T06:08:48;38.57;;;18.43;;
30080;SDS011;16902;50.816;12.828;2023-03-04T06:13:50;39.57;;;20.03;;
30080;SDS011;16902;50.816;12.828;2023-03-04T06:18:52;40.40;;;21.83;;
30080;SDS011;16902;50.816;12.828;2023-03-04T06:23:53;35.07;;;19.47;;
30080;SDS011;16902;50.816;12.828;2023-03-04T06:28:55;33.37;;;19.33;;
30080;SDS011;16902;50.816;12.828;2023-03-04T06:33:57;37.30;;;20.73;;
30080;SDS011;16902;50.816;12.828;2023-03-04T06:39:00;38.10;;;20.40;;
30080;SDS011;16902;50.816;12.828;2023-03-04T06:44:04;39.33;;;19.90;;
30080;SDS011;16902;50.816;12.828;2023-03-04T06:49:05;38.03;;;20.40;;
30080;SDS011;16902;50.816;12.828;2023-03-04T06:54:08;35.70;;;19.00;;
30080;SDS011;16902;50.816;12.828;2023-03-04T06:59:10;33.87;;;18.83;;
30080;SDS011;16902;50.816;12.828;2023-03-04T07:04:12;38.20;;;20.97;;
30080;SDS011;16902;50.816;12.828;2023-03-04T07:09:14;33.77;;;17.77;;
30080;SDS011;16902;50.816;12.828;2023-03-04T07:14:16;37.17;;;19.83;;
30080;SDS011;16902;50.816;12.828;2023-03-04T07:19:17;35.73;;;19.43;;
30080;SDS011;16902;50.816;12.828;2023-03-04T07:24:19;37.77;;;19.13;;
30080;SDS011;16902;50.816;12.828;2023-03-04T07:29:21;35.20;;;20.07;;
30080;SDS011;16902;50.816;12.828;2023-03-04T07:34:22;32.00;;;18.83;;
30080;SDS011;16902;50.816;12.828;2023-03-04T07:39:24;40.33;;;19.77;;
30080;SDS011;16902;50.816;12.828;2023-03-04T07:44:26;39.63;;;20.30;;
30080;SDS011;16902;50.816;12.828;2023-03-04T07:49:27;35.03;;;18.47;;
30080;SDS011;16902;50.816;12.828;2023-03-04T07:54:29;30.77;;;18.73;;
30080;SDS011;16902;50.816;12.828;2023-03-04T07:59:31;33.73;;;16.73;;
30080;SDS011;16902;50.816;12.828;2023-03-04T08:04:33;29.17;;;16.77;;
30080;SDS011;16902;50.816;12.828;2023-03-04T08:09:34;29.90;;;16.90;;
30080;SDS011;16902;50.816;12.828;2023-03-04T08:14:36;33.20;;;17.73;;
30080;SDS011;16902;50.816;12.828;2023-03-04T08:19:38;30.53;;;16.20;;
30080;SDS011;16902;50.816;12.828;2023-03-04T08:24:39;29.60;;;16.87;;
30080;SDS011;16902;50.816;12.828;2023-03-04T08:29:41;32.47;;;15.07;;
30080;SDS011;16902;50.816;12.828;2023-03-04T08:34:43;32.90;;;15.33;;
30080;SDS011;16902;50.816;12.828;2023-03-04T08:39:44;26.20;;;14.23;;
30080;SDS011;16902;50.816;12.828;2023-03-04T08:44:46;27.10;;;14.73;;
30080;SDS011;16902;50.816;12.828;2023-03-04T08:49:48;32.85;;;14.15;;
30080;SDS011;16902;50.816;12.828;2023-03-04T08:54:49;28.30;;;13.87;;
30080;SDS011;16902;50.816;12.828;2023-03-04T08:59:51;22.13;;;10.97;;
30080;SDS011;16902;50.816;12.828;2023-03-04T09:04:52;26.42;;;12.93;;
30080;SDS011;16902;50.816;12.828;2023-03-04T09:09:54;30.30;;;14.55;;
30080;SDS011;16902;50.816;12.828;2023-03-04T09:14:56;25.92;;;12.85;;
30080;SDS011;16902;50.816;12.828;2023-03-04T09:20:11;32.45;;;13.65;;
30080;SDS011;16902;50.816;12.828;2023-03-04T09:25:14;25.58;;;13.07;;
30080;SDS011;16902;50.816;12.828;2023-03-04T09:30:16;24.77;;;11.63;;
30080;SDS011;16902;50.816;12.828;2023-03-04T09:35:17;26.20;;;12.13;;
30080;SDS011;16902;50.816;12.828;2023-03-04T09:40:21;18.60;;;11.20;;
30080;SDS011;16902;50.816;12.828;2023-03-04T09:45:26;22.73;;;10.27;;
30080;SDS011;16902;50.816;12.828;2023-03-04T09:50:36;20.13;;;10.52;;
30080;SDS011;16902;50.816;12.828;2023-03-04T09:55:42;19.05;;;9.23;;
30080;SDS011;16902;50.816;12.828;2023-03-04T10:06:16;17.52;;;9.93;;
30080;SDS011;16902;50.816;12.828;2023-03-04T10:11:27;19.33;;;9.00;;
30080;SDS011;16902;50.816;12.828;2023-03-04T10:16:38;19.95;;;9.20;;
30080;SDS011;16902;50.816;12.828;2023-03-04T10:22:01;15.73;;;7.88;;
30080;SDS011;16902;50.816;12.828;2023-03-04T10:27:26;17.80;;;7.45;;
30080;SDS011;16902;50.816;12.828;2023-03-04T10:32:30;17.05;;;9.35;;
30080;SDS011;16902;50.816;12.828;2023-03-04T10:37:45;16.45;;;9.15;;
30080;SDS011;16902;50.816;12.828;2023-03-04T10:42:49;10.15;;;7.15;;
30080;SDS011;16902;50.816;12.828;2023-03-04T10:47:52;19.83;;;9.05;;
30080;SDS011;16902;50.816;12.828;2023-03-04T10:52:55;14.75;;;8.13;;
30080;SDS011;16902;50.816;12.828;2023-03-04T10:58:04;18.13;;;8.50;;
30080;SDS011;16902;50.816;12.828;2023-03-04T11:03:22;19.60;;;7.82;;
30080;SDS011;16902;50.816;12.828;2023-03-04T11:08:29;18.58;;;7.60;;
30080;SDS011;16902;50.816;12.828;2023-03-04T11:13:31;22.08;;;7.82;;
30080;SDS011;16902;50.816;12.828;2023-03-04T11:28:47;16.73;;;8.05;;
30080;SDS011;16902;50.816;12.828;2023-03-04T11:33:58;15.80;;;8.25;;
30080;SDS011;16902;50.816;12.828;2023-03-04T11:39:04;11.23;;;6.72;;
30080;SDS011;16902;50.816;12.828;2023-03-04T11:44:18;10.38;;;7.00;;
30080;SDS011;16902;50.816;12.828;2023-03-04T11:49:42;10.48;;;7.10;;
30080;SDS011;16902;50.816;12.828;2023-03-04T12:05:38;17.05;;;7.15;;
30080;SDS011;16902;50.816;12.828;2023-03-04T12:11:00;10.45;;;6.95;;
30080;SDS011;16902;50.816;12.828;2023-03-04T12:27:03;11.35;;;6.78;;
30080;SDS011;16902;50.816;12.828;2023-03-04T12:32:29;7.55;;;5.88;;
30080;SDS011;16902;50.816;12.828;2023-03-04T12:53:36;6.10;;;5.07;;
30080;SDS011;16902;50.816;12.828;2023-03-04T12:58:39;8.35;;;5.13;;
30080;SDS011;16902;50.816;12.828;2023-03-04T13:03:46;14.35;;;7.68;;
30080;SDS011;16902;50.816;12.828;2023-03-04T13:24:44;10.40;;;5.55;;
30080;SDS011;16902;50.816;12.828;2023-03-04T13:29:50;4.20;;;3.90;;
30080;SDS011;16902;50.816;12.828;2023-03-04T13:34:52;5.40;;;3.78;;
30080;SDS011;16902;50.816;12.828;2023-03-04T13:50:33;3.92;;;3.55;;
30080;SDS011;16902;50.816;12.828;2023-03-04T13:55:41;6.50;;;4.00;;
30080;SDS011;16902;50.816;12.828;2023-03-04T14:00:46;6.22;;;4.10;;
30080;SDS011;16902;50.816;12.828;2023-03-04T14:11:14;4.45;;;4.10;;
30080;SDS011;16902;50.816;12.828;2023-03-04T14:16:24;6.72;;;4.30;;
30080;SDS011;16902;50.816;12.828;2023-03-04T14:21:29;5.20;;;4.70;;
30080;SDS011;16902;50.816;12.828;2023-03-04T14:26:32;4.75;;;3.85;;
30080;SDS011;16902;50.816;12.828;2023-03-04T14:31:34;4.40;;;4.10;;
30080;SDS011;16902;50.816;12.828;2023-03-04T14:36:37;5.22;;;4.13;;
30080;SDS011;16902;50.816;12.828;2023-03-04T14:41:40;4.85;;;4.30;;
30080;SDS011;16902;50.816;12.828;2023-03-04T14:46:45;4.97;;;4.47;;
30080;SDS011;16902;50.816;12.828;2023-03-04T14:52:25;6.63;;;4.22;;
30080;SDS011;16902;50.816;12.828;2023-03-04T14:57:32;5.28;;;4.68;;
30080;SDS011;16902;50.816;12.828;2023-03-04T15:02:37;4.50;;;4.10;;
30080;SDS011;16902;50.816;12.828;2023-03-04T15:07:39;4.32;;;3.92;;
30080;SDS011;16902;50.816;12.828;2023-03-04T15:12:49;4.32;;;3.92;;
30080;SDS011;16902;50.816;12.828;2023-03-04T15:17:58;5.82;;;4.07;;
30080;SDS011;16902;50.816;12.828;2023-03-04T15:23:03;5.75;;;4.47;;
30080;SDS011;16902;50.816;12.828;2023-03-04T15:28:11;4.78;;;4.10;;
30080;SDS011;16902;50.816;12.828;2023-03-04T15:33:18;4.97;;;4.18;;
30080;SDS011;16902;50.816;12.828;2023-03-04T15:38:22;6.35;;;5.53;;
30080;SDS011;16902;50.816;12.828;2023-03-04T15:43:24;9.32;;;6.22;;
30080;SDS011;16902;50.816;12.828;2023-03-04T15:48:26;6.15;;;4.38;;
30080;SDS011;16902;50.816;12.828;2023-03-04T15:53:36;5.85;;;4.57;;
30080;SDS011;16902;50.816;12.828;2023-03-04T15:58:42;9.32;;;4.80;;
30080;SDS011;16902;50.816;12.828;2023-03-04T16:03:47;7.50;;;4.95;;
30080;SDS011;16902;50.816;12.828;2023-03-04T16:08:49;4.95;;;4.35;;
30080;SDS011;16902;50.816;12.828;2023-03-04T16:13:52;8.13;;;6.63;;
30080;SDS011;16902;50.816;12.828;2023-03-04T16:18:54;12.80;;;8.70;;
30080;SDS011;16902;50.816;12.828;2023-03-04T16:23:56;21.08;;;14.05;;
30080;SDS011;16902;50.816;12.828;2023-03-04T16:28:58;35.10;;;22.92;;
30080;SDS011;16902;50.816;12.828;2023-03-04T16:34:00;20.63;;;15.43;;
30080;SDS011;16902;50.816;12.828;2023-03-04T16:39:03;13.45;;;10.80;;
30080;SDS011;16902;50.816;12.828;2023-03-04T16:44:14;13.80;;;9.60;;
30080;SDS011;16902;50.816;12.828;2023-03-04T16:49:16;15.23;;;10.07;;
30080;SDS011;16902;50.816;12.828;2023-03-04T16:54:22;15.80;;;11.13;;
30080;SDS011;16902;50.816;12.828;2023-03-04T16:59:30;12.70;;;9.75;;
30080;SDS011;16902;50.816;12.828;2023-03-04T17:04:32;13.90;;;9.60;;
30080;SDS011;16902;50.816;12.828;2023-03-04T17:09:34;10.23;;;7.55;;
30080;SDS011;16902;50.816;12.828;2023-03-04T17:14:38;11.50;;;8.43;;
30080;SDS011;16902;50.816;12.828;2023-03-04T17:19:40;12.70;;;8.80;;
30080;SDS011;16902;50.816;12.828;2023-03-04T17:24:43;11.98;;;7.85;;
30080;SDS011;16902;50.816;12.828;2023-03-04T17:29:45;12.52;;;7.22;;
30080;SDS011;16902;50.816;12.828;2023-03-04T17:34:47;17.08;;;10.95;;
30080;SDS011;16902;50.816;12.828;2023-03-04T17:39:49;13.85;;;7.88;;
30080;SDS011;16902;50.816;12.828;2023-03-04T17:44:51;9.63;;;8.25;;
30080;SDS011;16902;50.816;12.828;2023-03-04T17:49:53;11.95;;;8.25;;
30080;SDS011;16902;50.816;12.828;2023-03-04T17:54:55;12.95;;;7.38;;
30080;SDS011;16902;50.816;12.828;2023-03-04T17:59:57;11.98;;;7.25;;
30080;SDS011;16902;50.816;12.828;2023-03-04T18:05:00;17.52;;;7.68;;
30080;SDS011;16902;50.816;12.828;2023-03-04T18:10:06;16.83;;;7.00;;
30080;SDS011;16902;50.816;12.828;2023-03-04T18:15:08;13.43;;;7.10;;
30080;SDS011;16902;50.816;12.828;2023-03-04T18:20:10;8.55;;;5.57;;
30080;SDS011;16902;50.816;12.828;2023-03-04T18:25:12;8.60;;;5.88;;
30080;SDS011;16902;50.816;12.828;2023-03-04T18:30:14;11.75;;;6.72;;
30080;SDS011;16902;50.816;12.828;2023-03-04T18:35:18;12.68;;;6.32;;
30080;SDS011;16902;50.816;12.828;2023-03-04T18:40:20;9.55;;;6.45;;
30080;SDS011;16902;50.816;12.828;2023-03-04T18:45:22;10.88;;;5.82;;
30080;SDS011;16902;50.816;12.828;2023-03-04T18:50:24;14.35;;;6.57;;
30080;SDS011;16902;50.816;12.828;2023-03-04T18:55:26;8.82;;;6.32;;
30080;SDS011;16902;50.816;12.828;2023-03-04T19:00:28;12.40;;;7.45;;
30080;SDS011;16902;50.816;12.828;2023-03-04T19:05:31;10.55;;;6.78;;
30080;SDS011;16902;50.816;12.828;2023-03-04T19:10:33;11.35;;;5.82;;
30080;SDS011;16902;50.816;12.828;2023-03-04T19:15:35;11.18;;;6.00;;
30080;SDS011;16902;50.816;12.828;2023-03-04T19:20:38;11.20;;;6.45;;
30080;SDS011;16902;50.816;12.828;2023-03-04T19:25:42;12.13;;;5.90;;
30080;SDS011;16902;50.816;12.828;2023-03-04T19:30:44;11.07;;;6.15;;
30080;SDS011;16902;50.816;12.828;2023-03-04T19:35:46;13.70;;;6.05;;
30080;SDS011;16902;50.816;12.828;2023-03-04T19:40:48;11.98;;;6.47;;
30080;SDS011;16902;50.816;12.828;2023-03-04T19:45:56;9.18;;;6.20;;
30080;SDS011;16902;50.816;12.828;2023-03-04T19:50:57;10.88;;;5.35;;
30080;SDS011;16902;50.816;12.828;2023-03-04T19:56:00;10.23;;;5.25;;
30080;SDS011;16902;50.816;12.828;2023-03-04T20:01:02;12.27;;;5.53;;
30080;SDS011;16902;50.816;12.828;2023-03-04T20:06:05;11.57;;;5.45;;
30080;SDS011;16902;50.816;12.828;2023-03-04T20:11:10;13.82;;;5.43;;
30080;SDS011;16902;50.816;12.828;2023-03-04T20:16:13;11.40;;;5.15;;
30080;SDS011;16902;50.816;12.828;2023-03-04T20:21:15;11.02;;;4.75;;
30080;SDS011;16902;50.816;12.828;2023-03-04T20:26:18;9.70;;;4.80;;
30080;SDS011;16902;50.816;12.828;2023-03-04T20:31:24;9.95;;;4.53;;
30080;SDS011;16902;50.816;12.828;2023-03-04T20:36:28;10.48;;;3.92;;
30080;SDS011;16902;50.816;12.828;2023-03-04T20:41:31;12.98;;;5.28;;
30080;SDS011;16902;50.816;12.828;2023-03-04T20:51:45;8.68;;;4.28;;
30080;SDS011;16902;50.816;12.828;2023-03-04T20:56:47;12.85;;;3.95;;
30080;SDS011;16902;50.816;12.828;2023-03-04T21:01:49;10.52;;;4.95;;
30080;SDS011;16902;50.816;12.828;2023-03-04T21:06:52;6.63;;;4.60;;
30080;SDS011;16902;50.816;12.828;2023-03-04T21:11:55;11.93;;;4.80;;
30080;SDS011;16902;50.816;12.828;2023-03-04T21:17:01;17.75;;;5.22;;
30080;SDS011;16902;50.816;12.828;2023-03-04T21:22:04;7.75;;;4.15;;
30080;SDS011;16902;50.816;12.828;2023-03-04T21:27:06;13.93;;;5.13;;
30080;SDS011;16902;50.816;12.828;2023-03-04T21:32:15;12.55;;;5.97;;
30080;SDS011;16902;50.816;12.828;2023-03-04T21:37:25;12.55;;;5.40;;
30080;SDS011;16902;50.816;12.828;2023-03-04T21:42:27;16.50;;;5.45;;
30080;SDS011;16902;50.816;12.828;2023-03-04T21:47:29;14.73;;;5.43;;
30080;SDS011;16902;50.816;12.828;2023-03-04T21:52:31;16.42;;;6.45;;
30080;SDS011;16902;50.816;12.828;2023-03-04T21:57:32;9.55;;;5.05;;
30080;SDS011;16902;50.816;12.828;2023-03-04T22:02:34;10.13;;;5.45;;
30080;SDS011;16902;50.816;12.828;2023-03-04T22:07:37;13.80;;;5.50;;
30080;SDS011;16902;50.816;12.828;2023-03-04T22:12:39;8.98;;;5.13;;
30080;SDS011;16902;50.816;12.828;2023-03-04T22:17:40;14.52;;;6.03;;
30080;SDS011;16902;50.816;12.828;2023-03-04T22:22:46;8.90;;;5.15;;
30080;SDS011;16902;50.816;12.828;2023-03-04T22:27:48;16.63;;;6.40;;
30080;SDS011;16902;50.816;12.828;2023-03-04T22:32:49;14.45;;;5.30;;
30080;SDS011;16902;50.816;12.828;2023-03-04T22:37:52;11.88;;;5.97;;
30080;SDS011;16902;50.816;12.828;2023-03-04T22:42:54;14.82;;;6.90;;
30080;SDS011;16902;50.816;12.828;2023-03-04T22:47:56;12.10;;;5.97;;
30080;SDS011;16902;50.816;12.828;2023-03-04T22:52:57;15.85;;;6.25;;
30080;SDS011;16902;50.816;12.828;2023-03-04T22:58:00;15.73;;;6.80;;
30080;SDS011;16902;50.816;12.828;2023-03-04T23:03:03;16.60;;;7.22;;
30080;SDS011;16902;50.816;12.828;2023-03-04T23:08:06;12.82;;;7.00;;
30080;SDS011;16902;50.816;12.828;2023-03-04T23:13:08;15.57;;;6.90;;
30080;SDS011;16902;50.816;12.828;2023-03-04T23:18:10;12.23;;;6.72;;
30080;SDS011;16902;50.816;12.828;2023-03-04T23:23:12;13.60;;;6.88;;
30080;SDS011;16902;50.816;12.828;2023-03-04T23:28:14;14.20;;;6.83;;
30080;SDS011;16902;50.816;12.828;2023-03-04T23:33:16;11.02;;;5.93;;
30080;SDS011;16902;50.816;12.828;2023-03-04T23:38:18;15.15;;;6.50;;
30080;SDS011;16902;50.816;12.828;2023-03-04T23:43:19;15.02;;;6.43;;
30080;SDS011;16902;50.816;12.828;2023-03-04T23:48:21;11.52;;;6.18;;
30080;SDS011;16902;50.816;12.828;2023-03-04T23:53:23;11.38;;;5.45;;
30080;SDS011;16902;50.816;12.828;2023-03-04T23:58:25;11.07;;;5.28;;
